sensor_id;sensor_type;location;lat;lon;timestamp;P1;durP1;ratioP1;P2;durP2;ratioP2
9240;SDS011;53485;49.326;9.738;2022-11-14T00:00:40;20.23;;;13.70;;
9240;SDS011;53485;49.326;9.738;2022-11-14T00:03:07;21.30;;;13.50;;
9240;SDS011;53485;49.326;9.738;2022-11-14T00:05:37;23.73;;;14.57;;
9240;SDS011;53485;49.326;9.738;2022-11-14T00:08:03;19.27;;;12.77;;
9240;SDS011;53485;49.326;9.738;2022-11-14T00:10:31;20.87;;;14.13;;
9240;SDS011;53485;49.326;9.738;2022-11-14T00:12:58;20.90;;;13.10;;
9240;SDS011;53485;49.326;9.738;2022-11-14T00:15:25;21.13;;;13.73;;
9240;SDS011;53485;49.326;9.738;2022-11-14T00:17:53;22.10;;;14.23;;
9240;SDS011;53485;49.326;9.738;2022-11-14T00:20:20;20.70;;;13.47;;
9240;SDS011;53485;49.326;9.738;2022-11-14T00:22:47;17.50;;;12.83;;
9240;SDS011;53485;49.326;9.738;2022-11-14T00:25:15;22.93;;;14.07;;
9240;SDS011;53485;49.326;9.738;2022-11-14T00:27:42;23.03;;;14.83;;
9240;SDS011;53485;49.326;9.738;2022-11-14T00:30:10;21.77;;;14.30;;
9240;SDS011;53485;49.326;9.738;2022-11-14T00:32:37;19.13;;;12.77;;
9240;SDS011;53485;49.326;9.738;2022-11-14T00:35:05;25.67;;;15.83;;
9240;SDS011;53485;49.326;9.738;2022-11-14T00:37:32;20.43;;;13.57;;
9240;SDS011;53485;49.326;9.738;2022-11-14T00:39:59;27.67;;;15.67;;
9240;SDS011;53485;49.326;9.738;2022-11-14T00:42:27;24.93;;;14.53;;
9240;SDS011;53485;49.326;9.738;2022-11-14T00:44:54;24.03;;;14.73;;
9240;SDS011;53485;49.326;9.738;2022-11-14T00:47:22;22.83;;;13.33;;
9240;SDS011;53485;49.326;9.738;2022-11-14T00:49:49;21.33;;;13.30;;
9240;SDS011;53485;49.326;9.738;2022-11-14T00:52:16;22.53;;;13.50;;
9240;SDS011;53485;49.326;9.738;2022-11-14T00:54:44;21.87;;;13.83;;
9240;SDS011;53485;49.326;9.738;2022-11-14T00:57:11;22.67;;;14.43;;
9240;SDS011;53485;49.326;9.738;2022-11-14T00:59:39;22.70;;;14.03;;
9240;SDS011;53485;49.326;9.738;2022-11-14T01:02:06;22.10;;;14.23;;
9240;SDS011;53485;49.326;9.738;2022-11-14T01:04:33;22.83;;;14.33;;
9240;SDS011;53485;49.326;9.738;2022-11-14T01:07:01;21.03;;;13.20;;
9240;SDS011;53485;49.326;9.738;2022-11-14T01:09:28;23.60;;;14.30;;
9240;SDS011;53485;49.326;9.738;2022-11-14T01:11:56;21.73;;;13.23;;
9240;SDS011;53485;49.326;9.738;2022-11-14T01:14:23;25.50;;;15.17;;
9240;SDS011;53485;49.326;9.738;2022-11-14T01:16:51;25.70;;;15.00;;
9240;SDS011;53485;49.326;9.738;2022-11-14T01:19:18;25.83;;;15.30;;
9240;SDS011;53485;49.326;9.738;2022-11-14T01:21:45;26.27;;;15.50;;
9240;SDS011;53485;49.326;9.738;2022-11-14T01:24:13;23.70;;;15.17;;
9240;SDS011;53485;49.326;9.738;2022-11-14T01:26:40;27.20;;;15.80;;
9240;SDS011;53485;49.326;9.738;2022-11-14T01:29:08;24.00;;;15.70;;
9240;SDS011;53485;49.326;9.738;2022-11-14T01:31:35;22.40;;;14.30;;
9240;SDS011;53485;49.326;9.738;2022-11-14T01:34:02;24.00;;;16.13;;
9240;SDS011;53485;49.326;9.738;2022-11-14T01:36:30;25.73;;;16.43;;
9240;SDS011;53485;49.326;9.738;2022-11-14T01:38:57;27.93;;;15.93;;
9240;SDS011;53485;49.326;9.738;2022-11-14T01:41:24;25.03;;;15.77;;
9240;SDS011;53485;49.326;9.738;2022-11-14T01:43:52;21.83;;;14.90;;
9240;SDS011;53485;49.326;9.738;2022-11-14T01:46:22;29.73;;;19.27;;
9240;SDS011;53485;49.326;9.738;2022-11-14T01:48:53;29.97;;;18.83;;
9240;SDS011;53485;49.326;9.738;2022-11-14T01:51:26;26.27;;;17.10;;
9240;SDS011;53485;49.326;9.738;2022-11-14T01:54:08;28.13;;;17.93;;
9240;SDS011;53485;49.326;9.738;2022-11-14T01:56:36;35.03;;;21.07;;
9240;SDS011;53485;49.326;9.738;2022-11-14T01:59:01;29.87;;;18.47;;
9240;SDS011;53485;49.326;9.738;2022-11-14T02:01:28;34.67;;;20.47;;
9240;SDS011;53485;49.326;9.738;2022-11-14T02:03:55;32.53;;;19.10;;
9240;SDS011;53485;49.326;9.738;2022-11-14T02:06:22;41.53;;;22.40;;
9240;SDS011;53485;49.326;9.738;2022-11-14T02:08:48;36.30;;;19.93;;
9240;SDS011;53485;49.326;9.738;2022-11-14T02:11:15;48.93;;;23.40;;
9240;SDS011;53485;49.326;9.738;2022-11-14T02:13:43;37.93;;;21.27;;
9240;SDS011;53485;49.326;9.738;2022-11-14T02:16:10;40.80;;;22.23;;
9240;SDS011;53485;49.326;9.738;2022-11-14T02:18:37;42.33;;;21.63;;
9240;SDS011;53485;49.326;9.738;2022-11-14T02:21:05;34.97;;;20.13;;
9240;SDS011;53485;49.326;9.738;2022-11-14T02:23:32;44.17;;;22.50;;
9240;SDS011;53485;49.326;9.738;2022-11-14T02:25:59;43.07;;;22.07;;
9240;SDS011;53485;49.326;9.738;2022-11-14T02:28:27;50.40;;;23.27;;
9240;SDS011;53485;49.326;9.738;2022-11-14T02:30:54;43.67;;;22.90;;
9240;SDS011;53485;49.326;9.738;2022-11-14T02:33:21;46.23;;;23.37;;
9240;SDS011;53485;49.326;9.738;2022-11-14T02:35:48;42.30;;;24.07;;
9240;SDS011;53485;49.326;9.738;2022-11-14T02:38:20;44.63;;;24.30;;
9240;SDS011;53485;49.326;9.738;2022-11-14T02:40:48;44.67;;;23.20;;
9240;SDS011;53485;49.326;9.738;2022-11-14T02:43:15;44.97;;;22.80;;
9240;SDS011;53485;49.326;9.738;2022-11-14T02:45:42;40.63;;;22.00;;
9240;SDS011;53485;49.326;9.738;2022-11-14T02:48:10;48.37;;;25.23;;
9240;SDS011;53485;49.326;9.738;2022-11-14T02:50:37;47.00;;;24.43;;
9240;SDS011;53485;49.326;9.738;2022-11-14T02:53:05;44.67;;;21.87;;
9240;SDS011;53485;49.326;9.738;2022-11-14T02:55:32;48.60;;;25.43;;
9240;SDS011;53485;49.326;9.738;2022-11-14T02:57:59;50.53;;;24.47;;
9240;SDS011;53485;49.326;9.738;2022-11-14T03:00:27;47.57;;;24.70;;
9240;SDS011;53485;49.326;9.738;2022-11-14T03:02:54;48.53;;;23.87;;
9240;SDS011;53485;49.326;9.738;2022-11-14T03:05:21;44.20;;;23.17;;
9240;SDS011;53485;49.326;9.738;2022-11-14T03:07:51;45.53;;;22.20;;
9240;SDS011;53485;49.326;9.738;2022-11-14T03:10:15;51.60;;;24.03;;
9240;SDS011;53485;49.326;9.738;2022-11-14T03:12:43;48.23;;;23.43;;
9240;SDS011;53485;49.326;9.738;2022-11-14T03:15:10;47.43;;;23.87;;
9240;SDS011;53485;49.326;9.738;2022-11-14T03:17:38;39.87;;;22.30;;
9240;SDS011;53485;49.326;9.738;2022-11-14T03:20:05;46.57;;;25.00;;
9240;SDS011;53485;49.326;9.738;2022-11-14T03:22:33;52.27;;;27.13;;
9240;SDS011;53485;49.326;9.738;2022-11-14T03:25:01;50.80;;;24.67;;
9240;SDS011;53485;49.326;9.738;2022-11-14T03:27:28;52.27;;;26.27;;
9240;SDS011;53485;49.326;9.738;2022-11-14T03:29:56;60.20;;;27.33;;
9240;SDS011;53485;49.326;9.738;2022-11-14T03:32:23;52.43;;;26.40;;
9240;SDS011;53485;49.326;9.738;2022-11-14T03:34:50;53.07;;;26.63;;
9240;SDS011;53485;49.326;9.738;2022-11-14T03:37:18;56.83;;;26.00;;
9240;SDS011;53485;49.326;9.738;2022-11-14T03:39:45;58.27;;;27.27;;
9240;SDS011;53485;49.326;9.738;2022-11-14T03:42:13;54.37;;;26.97;;
9240;SDS011;53485;49.326;9.738;2022-11-14T03:44:40;53.07;;;27.60;;
9240;SDS011;53485;49.326;9.738;2022-11-14T03:47:07;52.43;;;25.67;;
9240;SDS011;53485;49.326;9.738;2022-11-14T03:49:35;49.80;;;24.20;;
9240;SDS011;53485;49.326;9.738;2022-11-14T03:52:02;52.30;;;26.57;;
9240;SDS011;53485;49.326;9.738;2022-11-14T03:54:30;54.83;;;27.30;;
9240;SDS011;53485;49.326;9.738;2022-11-14T03:56:57;48.57;;;25.30;;
9240;SDS011;53485;49.326;9.738;2022-11-14T03:59:24;54.03;;;27.03;;
9240;SDS011;53485;49.326;9.738;2022-11-14T04:01:52;53.37;;;27.27;;
9240;SDS011;53485;49.326;9.738;2022-11-14T04:04:19;53.73;;;27.57;;
9240;SDS011;53485;49.326;9.738;2022-11-14T04:06:47;49.93;;;26.63;;
9240;SDS011;53485;49.326;9.738;2022-11-14T04:09:14;51.07;;;26.83;;
9240;SDS011;53485;49.326;9.738;2022-11-14T04:11:41;53.30;;;26.83;;
9240;SDS011;53485;49.326;9.738;2022-11-14T04:14:09;53.27;;;26.40;;
9240;SDS011;53485;49.326;9.738;2022-11-14T04:16:36;48.73;;;25.43;;
9240;SDS011;53485;49.326;9.738;2022-11-14T04:19:03;49.97;;;24.83;;
9240;SDS011;53485;49.326;9.738;2022-11-14T04:21:31;48.40;;;24.90;;
9240;SDS011;53485;49.326;9.738;2022-11-14T04:23:58;47.63;;;25.33;;
9240;SDS011;53485;49.326;9.738;2022-11-14T04:26:25;48.87;;;25.17;;
9240;SDS011;53485;49.326;9.738;2022-11-14T04:28:53;45.83;;;26.13;;
9240;SDS011;53485;49.326;9.738;2022-11-14T04:31:20;45.97;;;24.30;;
9240;SDS011;53485;49.326;9.738;2022-11-14T04:33:48;42.47;;;24.13;;
9240;SDS011;53485;49.326;9.738;2022-11-14T04:36:15;43.30;;;23.10;;
9240;SDS011;53485;49.326;9.738;2022-11-14T04:38:42;41.80;;;22.27;;
9240;SDS011;53485;49.326;9.738;2022-11-14T04:41:10;37.63;;;20.97;;
9240;SDS011;53485;49.326;9.738;2022-11-14T04:43:37;40.43;;;21.97;;
9240;SDS011;53485;49.326;9.738;2022-11-14T04:46:05;36.10;;;20.97;;
9240;SDS011;53485;49.326;9.738;2022-11-14T04:48:32;39.17;;;22.10;;
9240;SDS011;53485;49.326;9.738;2022-11-14T04:51:00;34.43;;;19.30;;
9240;SDS011;53485;49.326;9.738;2022-11-14T04:53:27;35.00;;;20.40;;
9240;SDS011;53485;49.326;9.738;2022-11-14T04:55:54;37.20;;;20.43;;
9240;SDS011;53485;49.326;9.738;2022-11-14T04:58:22;30.47;;;19.23;;
9240;SDS011;53485;49.326;9.738;2022-11-14T05:00:49;33.27;;;19.80;;
9240;SDS011;53485;49.326;9.738;2022-11-14T05:03:17;33.20;;;19.07;;
9240;SDS011;53485;49.326;9.738;2022-11-14T05:05:44;29.27;;;18.27;;
9240;SDS011;53485;49.326;9.738;2022-11-14T05:08:11;30.70;;;18.30;;
9240;SDS011;53485;49.326;9.738;2022-11-14T05:10:41;30.07;;;17.90;;
9240;SDS011;53485;49.326;9.738;2022-11-14T05:13:07;25.17;;;16.40;;
9240;SDS011;53485;49.326;9.738;2022-11-14T05:15:35;30.47;;;17.67;;
9240;SDS011;53485;49.326;9.738;2022-11-14T05:18:02;27.53;;;16.67;;
9240;SDS011;53485;49.326;9.738;2022-11-14T05:20:29;28.80;;;17.07;;
9240;SDS011;53485;49.326;9.738;2022-11-14T05:22:57;29.23;;;18.20;;
9240;SDS011;53485;49.326;9.738;2022-11-14T05:25:24;26.93;;;16.73;;
9240;SDS011;53485;49.326;9.738;2022-11-14T05:27:51;28.47;;;16.73;;
9240;SDS011;53485;49.326;9.738;2022-11-14T05:30:19;27.73;;;16.30;;
9240;SDS011;53485;49.326;9.738;2022-11-14T05:32:46;26.63;;;15.83;;
9240;SDS011;53485;49.326;9.738;2022-11-14T05:35:13;25.80;;;15.60;;
9240;SDS011;53485;49.326;9.738;2022-11-14T05:37:41;28.20;;;16.10;;
9240;SDS011;53485;49.326;9.738;2022-11-14T05:40:08;29.43;;;16.77;;
9240;SDS011;53485;49.326;9.738;2022-11-14T05:42:36;25.13;;;15.30;;
9240;SDS011;53485;49.326;9.738;2022-11-14T05:45:04;25.87;;;16.73;;
9240;SDS011;53485;49.326;9.738;2022-11-14T05:47:32;29.10;;;16.33;;
9240;SDS011;53485;49.326;9.738;2022-11-14T05:49:59;27.57;;;17.53;;
9240;SDS011;53485;49.326;9.738;2022-11-14T05:52:26;25.57;;;15.70;;
9240;SDS011;53485;49.326;9.738;2022-11-14T05:54:54;32.00;;;18.47;;
9240;SDS011;53485;49.326;9.738;2022-11-14T05:57:21;30.30;;;17.27;;
9240;SDS011;53485;49.326;9.738;2022-11-14T05:59:49;30.10;;;17.70;;
9240;SDS011;53485;49.326;9.738;2022-11-14T06:02:16;28.03;;;16.50;;
9240;SDS011;53485;49.326;9.738;2022-11-14T06:04:43;30.73;;;17.73;;
9240;SDS011;53485;49.326;9.738;2022-11-14T06:07:11;30.03;;;17.20;;
9240;SDS011;53485;49.326;9.738;2022-11-14T06:09:38;32.57;;;18.23;;
9240;SDS011;53485;49.326;9.738;2022-11-14T06:12:06;31.80;;;17.20;;
9240;SDS011;53485;49.326;9.738;2022-11-14T06:14:33;28.93;;;16.70;;
9240;SDS011;53485;49.326;9.738;2022-11-14T06:17:00;31.63;;;17.47;;
9240;SDS011;53485;49.326;9.738;2022-11-14T06:19:28;32.83;;;17.53;;
9240;SDS011;53485;49.326;9.738;2022-11-14T06:21:55;32.90;;;17.23;;
9240;SDS011;53485;49.326;9.738;2022-11-14T06:24:23;35.90;;;18.93;;
9240;SDS011;53485;49.326;9.738;2022-11-14T06:26:50;32.07;;;18.33;;
9240;SDS011;53485;49.326;9.738;2022-11-14T06:29:17;35.73;;;17.87;;
9240;SDS011;53485;49.326;9.738;2022-11-14T06:31:45;36.40;;;18.07;;
9240;SDS011;53485;49.326;9.738;2022-11-14T06:34:12;32.97;;;17.60;;
9240;SDS011;53485;49.326;9.738;2022-11-14T06:36:40;34.67;;;17.93;;
9240;SDS011;53485;49.326;9.738;2022-11-14T06:39:07;35.20;;;18.07;;
9240;SDS011;53485;49.326;9.738;2022-11-14T06:41:35;33.17;;;18.37;;
9240;SDS011;53485;49.326;9.738;2022-11-14T06:44:02;34.23;;;18.60;;
9240;SDS011;53485;49.326;9.738;2022-11-14T06:46:29;35.70;;;19.23;;
9240;SDS011;53485;49.326;9.738;2022-11-14T06:48:57;40.90;;;19.93;;
9240;SDS011;53485;49.326;9.738;2022-11-14T06:51:24;34.13;;;19.37;;
9240;SDS011;53485;49.326;9.738;2022-11-14T06:53:52;38.97;;;19.73;;
9240;SDS011;53485;49.326;9.738;2022-11-14T06:56:19;34.83;;;19.37;;
9240;SDS011;53485;49.326;9.738;2022-11-14T06:58:47;37.37;;;19.23;;
9240;SDS011;53485;49.326;9.738;2022-11-14T07:01:17;34.97;;;19.30;;
9240;SDS011;53485;49.326;9.738;2022-11-14T07:03:43;38.10;;;19.03;;
9240;SDS011;53485;49.326;9.738;2022-11-14T07:06:12;41.20;;;19.87;;
9240;SDS011;53485;49.326;9.738;2022-11-14T07:08:36;39.23;;;19.20;;
9240;SDS011;53485;49.326;9.738;2022-11-14T07:11:05;32.87;;;17.73;;
9240;SDS011;53485;49.326;9.738;2022-11-14T07:13:31;35.23;;;18.27;;
9240;SDS011;53485;49.326;9.738;2022-11-14T07:15:57;35.03;;;18.97;;
9240;SDS011;53485;49.326;9.738;2022-11-14T07:18:24;31.60;;;16.93;;
9240;SDS011;53485;49.326;9.738;2022-11-14T07:20:57;35.37;;;18.93;;
9240;SDS011;53485;49.326;9.738;2022-11-14T07:23:25;29.50;;;17.37;;
9240;SDS011;53485;49.326;9.738;2022-11-14T07:25:51;32.50;;;18.23;;
9240;SDS011;53485;49.326;9.738;2022-11-14T07:28:19;30.97;;;17.03;;
9240;SDS011;53485;49.326;9.738;2022-11-14T07:30:46;25.77;;;15.20;;
9240;SDS011;53485;49.326;9.738;2022-11-14T07:33:13;24.27;;;15.43;;
9240;SDS011;53485;49.326;9.738;2022-11-14T07:35:41;24.77;;;14.97;;
9240;SDS011;53485;49.326;9.738;2022-11-14T07:38:08;22.80;;;14.10;;
9240;SDS011;53485;49.326;9.738;2022-11-14T07:40:35;22.10;;;13.70;;
9240;SDS011;53485;49.326;9.738;2022-11-14T07:43:02;16.60;;;11.87;;
9240;SDS011;53485;49.326;9.738;2022-11-14T07:45:29;14.70;;;11.20;;
9240;SDS011;53485;49.326;9.738;2022-11-14T07:47:57;13.13;;;10.10;;
9240;SDS011;53485;49.326;9.738;2022-11-14T07:50:23;11.27;;;9.23;;
9240;SDS011;53485;49.326;9.738;2022-11-14T07:52:51;10.37;;;9.23;;
9240;SDS011;53485;49.326;9.738;2022-11-14T07:55:17;11.13;;;9.00;;
9240;SDS011;53485;49.326;9.738;2022-11-14T07:57:44;9.67;;;8.67;;
9240;SDS011;53485;49.326;9.738;2022-11-14T08:00:11;11.73;;;8.27;;
9240;SDS011;53485;49.326;9.738;2022-11-14T08:02:39;8.97;;;8.07;;
9240;SDS011;53485;49.326;9.738;2022-11-14T08:05:06;10.67;;;8.17;;
9240;SDS011;53485;49.326;9.738;2022-11-14T08:07:33;10.57;;;8.17;;
9240;SDS011;53485;49.326;9.738;2022-11-14T08:10:01;9.03;;;7.50;;
9240;SDS011;53485;49.326;9.738;2022-11-14T08:12:28;8.33;;;7.53;;
9240;SDS011;53485;49.326;9.738;2022-11-14T08:14:55;9.37;;;7.70;;
9240;SDS011;53485;49.326;9.738;2022-11-14T08:17:22;8.33;;;7.53;;
9240;SDS011;53485;49.326;9.738;2022-11-14T08:19:49;8.17;;;7.37;;
9240;SDS011;53485;49.326;9.738;2022-11-14T08:22:17;7.80;;;7.03;;
9240;SDS011;53485;49.326;9.738;2022-11-14T08:24:44;7.37;;;6.67;;
9240;SDS011;53485;49.326;9.738;2022-11-14T08:27:12;7.57;;;6.87;;
9240;SDS011;53485;49.326;9.738;2022-11-14T08:29:39;8.40;;;7.17;;
9240;SDS011;53485;49.326;9.738;2022-11-14T08:32:07;7.40;;;6.60;;
9240;SDS011;53485;49.326;9.738;2022-11-14T08:34:34;7.87;;;6.93;;
9240;SDS011;53485;49.326;9.738;2022-11-14T08:37:01;8.27;;;7.27;;
9240;SDS011;53485;49.326;9.738;2022-11-14T08:39:28;8.33;;;7.07;;
9240;SDS011;53485;49.326;9.738;2022-11-14T08:41:55;8.03;;;7.23;;
9240;SDS011;53485;49.326;9.738;2022-11-14T08:44:22;7.60;;;6.60;;
9240;SDS011;53485;49.326;9.738;2022-11-14T08:46:49;7.47;;;6.77;;
9240;SDS011;53485;49.326;9.738;2022-11-14T08:49:17;7.50;;;6.70;;
9240;SDS011;53485;49.326;9.738;2022-11-14T08:51:44;7.57;;;6.83;;
9240;SDS011;53485;49.326;9.738;2022-11-14T08:54:11;8.40;;;7.43;;
9240;SDS011;53485;49.326;9.738;2022-11-14T08:56:39;8.63;;;7.60;;
9240;SDS011;53485;49.326;9.738;2022-11-14T08:59:06;11.90;;;8.30;;
9240;SDS011;53485;49.326;9.738;2022-11-14T09:01:34;9.27;;;8.03;;
9240;SDS011;53485;49.326;9.738;2022-11-14T09:04:02;9.03;;;7.63;;
9240;SDS011;53485;49.326;9.738;2022-11-14T09:06:29;9.87;;;8.23;;
9240;SDS011;53485;49.326;9.738;2022-11-14T09:08:56;9.27;;;7.70;;
9240;SDS011;53485;49.326;9.738;2022-11-14T09:11:24;9.83;;;7.63;;
9240;SDS011;53485;49.326;9.738;2022-11-14T09:13:51;9.63;;;7.77;;
9240;SDS011;53485;49.326;9.738;2022-11-14T09:16:18;10.80;;;8.17;;
9240;SDS011;53485;49.326;9.738;2022-11-14T09:18:46;12.27;;;8.60;;
9240;SDS011;53485;49.326;9.738;2022-11-14T09:21:13;11.47;;;8.73;;
9240;SDS011;53485;49.326;9.738;2022-11-14T09:23:41;12.87;;;9.17;;
9240;SDS011;53485;49.326;9.738;2022-11-14T09:26:08;9.37;;;7.97;;
9240;SDS011;53485;49.326;9.738;2022-11-14T09:28:35;10.37;;;7.67;;
9240;SDS011;53485;49.326;9.738;2022-11-14T09:31:03;12.27;;;8.33;;
9240;SDS011;53485;49.326;9.738;2022-11-14T09:33:29;9.27;;;7.63;;
9240;SDS011;53485;49.326;9.738;2022-11-14T09:35:56;10.23;;;7.93;;
9240;SDS011;53485;49.326;9.738;2022-11-14T09:38:23;9.67;;;7.70;;
9240;SDS011;53485;49.326;9.738;2022-11-14T09:40:57;11.90;;;9.50;;
9240;SDS011;53485;49.326;9.738;2022-11-14T09:44:31;10.10;;;7.70;;
9240;SDS011;53485;49.326;9.738;2022-11-14T09:46:19;11.07;;;8.53;;
9240;SDS011;53485;49.326;9.738;2022-11-14T09:48:48;10.20;;;7.60;;
9240;SDS011;53485;49.326;9.738;2022-11-14T09:51:16;10.07;;;8.03;;
9240;SDS011;53485;49.326;9.738;2022-11-14T09:56:32;8.90;;;7.93;;
9240;SDS011;53485;49.326;9.738;2022-11-14T09:58:59;9.03;;;7.13;;
9240;SDS011;53485;49.326;9.738;2022-11-14T10:01:30;7.07;;;6.33;;
9240;SDS011;53485;49.326;9.738;2022-11-14T10:04:18;7.10;;;6.23;;
9240;SDS011;53485;49.326;9.738;2022-11-14T10:06:53;8.10;;;7.30;;
9240;SDS011;53485;49.326;9.738;2022-11-14T10:09:24;6.97;;;6.10;;
9240;SDS011;53485;49.326;9.738;2022-11-14T10:11:55;7.30;;;6.50;;
9240;SDS011;53485;49.326;9.738;2022-11-14T10:14:30;8.70;;;6.33;;
9240;SDS011;53485;49.326;9.738;2022-11-14T10:17:13;7.57;;;6.40;;
9240;SDS011;53485;49.326;9.738;2022-11-14T10:19:43;7.20;;;6.50;;
9240;SDS011;53485;49.326;9.738;2022-11-14T10:22:32;8.33;;;6.37;;
9240;SDS011;53485;49.326;9.738;2022-11-14T10:30:39;5.47;;;4.97;;
9240;SDS011;53485;49.326;9.738;2022-11-14T10:33:45;7.80;;;5.93;;
9240;SDS011;53485;49.326;9.738;2022-11-14T10:35:58;5.87;;;5.30;;
9240;SDS011;53485;49.326;9.738;2022-11-14T10:38:33;6.47;;;5.40;;
9240;SDS011;53485;49.326;9.738;2022-11-14T10:41:03;6.13;;;5.53;;
9240;SDS011;53485;49.326;9.738;2022-11-14T10:43:36;6.47;;;5.73;;
9240;SDS011;53485;49.326;9.738;2022-11-14T10:46:08;7.37;;;5.23;;
9240;SDS011;53485;49.326;9.738;2022-11-14T10:48:37;10.20;;;5.97;;
9240;SDS011;53485;49.326;9.738;2022-11-14T10:51:15;7.67;;;5.27;;
9240;SDS011;53485;49.326;9.738;2022-11-14T10:53:47;5.77;;;5.27;;
9240;SDS011;53485;49.326;9.738;2022-11-14T10:56:17;6.83;;;5.60;;
9240;SDS011;53485;49.326;9.738;2022-11-14T10:58:44;5.27;;;4.80;;
9240;SDS011;53485;49.326;9.738;2022-11-14T11:03:50;5.60;;;4.53;;
9240;SDS011;53485;49.326;9.738;2022-11-14T11:06:24;5.07;;;4.17;;
9240;SDS011;53485;49.326;9.738;2022-11-14T11:08:50;4.33;;;3.60;;
9240;SDS011;53485;49.326;9.738;2022-11-14T11:11:22;3.60;;;3.30;;
9240;SDS011;53485;49.326;9.738;2022-11-14T11:13:56;3.23;;;2.80;;
9240;SDS011;53485;49.326;9.738;2022-11-14T11:16:23;3.90;;;2.80;;
9240;SDS011;53485;49.326;9.738;2022-11-14T11:18:49;2.93;;;2.23;;
9240;SDS011;53485;49.326;9.738;2022-11-14T11:21:17;2.57;;;2.37;;
9240;SDS011;53485;49.326;9.738;2022-11-14T11:23:48;5.33;;;2.50;;
9240;SDS011;53485;49.326;9.738;2022-11-14T11:26:17;3.93;;;2.57;;
9240;SDS011;53485;49.326;9.738;2022-11-14T11:28:42;2.30;;;2.00;;
9240;SDS011;53485;49.326;9.738;2022-11-14T11:31:10;2.27;;;1.90;;
9240;SDS011;53485;49.326;9.738;2022-11-14T11:33:37;2.60;;;1.90;;
9240;SDS011;53485;49.326;9.738;2022-11-14T11:36:19;5.43;;;1.80;;
9240;SDS011;53485;49.326;9.738;2022-11-14T11:38:45;2.13;;;1.50;;
9240;SDS011;53485;49.326;9.738;2022-11-14T11:41:21;2.57;;;2.00;;
9240;SDS011;53485;49.326;9.738;2022-11-14T11:43:53;2.50;;;1.90;;
9240;SDS011;53485;49.326;9.738;2022-11-14T11:46:21;2.43;;;1.73;;
9240;SDS011;53485;49.326;9.738;2022-11-14T11:48:48;2.77;;;1.83;;
9240;SDS011;53485;49.326;9.738;2022-11-14T11:51:15;2.10;;;1.90;;
9240;SDS011;53485;49.326;9.738;2022-11-14T11:53:43;1.80;;;1.53;;
9240;SDS011;53485;49.326;9.738;2022-11-14T11:56:10;2.10;;;1.63;;
9240;SDS011;53485;49.326;9.738;2022-11-14T11:58:40;2.40;;;2.20;;
9240;SDS011;53485;49.326;9.738;2022-11-14T12:01:08;1.93;;;1.40;;
9240;SDS011;53485;49.326;9.738;2022-11-14T12:03:32;3.00;;;1.80;;
9240;SDS011;53485;49.326;9.738;2022-11-14T12:06:06;1.53;;;1.40;;
9240;SDS011;53485;49.326;9.738;2022-11-14T12:08:36;1.17;;;1.07;;
9240;SDS011;53485;49.326;9.738;2022-11-14T12:11:03;1.20;;;1.10;;
9240;SDS011;53485;49.326;9.738;2022-11-14T12:13:42;1.00;;;0.90;;
9240;SDS011;53485;49.326;9.738;2022-11-14T12:16:27;1.97;;;1.00;;
9240;SDS011;53485;49.326;9.738;2022-11-14T12:19:01;1.10;;;1.00;;
9240;SDS011;53485;49.326;9.738;2022-11-14T12:21:33;1.60;;;1.20;;
9240;SDS011;53485;49.326;9.738;2022-11-14T12:24:21;2.37;;;1.00;;
9240;SDS011;53485;49.326;9.738;2022-11-14T12:29:32;1.03;;;0.93;;
9240;SDS011;53485;49.326;9.738;2022-11-14T12:31:57;1.30;;;1.13;;
9240;SDS011;53485;49.326;9.738;2022-11-14T12:34:25;2.07;;;0.80;;
9240;SDS011;53485;49.326;9.738;2022-11-14T12:36:51;0.93;;;0.90;;
9240;SDS011;53485;49.326;9.738;2022-11-14T12:39:21;2.33;;;1.23;;
9240;SDS011;53485;49.326;9.738;2022-11-14T12:41:50;1.70;;;0.97;;
9240;SDS011;53485;49.326;9.738;2022-11-14T12:44:18;1.17;;;0.90;;
9240;SDS011;53485;49.326;9.738;2022-11-14T12:49:57;2.10;;;0.80;;
9240;SDS011;53485;49.326;9.738;2022-11-14T12:54:50;1.20;;;0.80;;
9240;SDS011;53485;49.326;9.738;2022-11-14T12:57:20;3.53;;;2.43;;
9240;SDS011;53485;49.326;9.738;2022-11-14T12:59:48;1.10;;;0.80;;
9240;SDS011;53485;49.326;9.738;2022-11-14T13:02:22;1.63;;;0.70;;
9240;SDS011;53485;49.326;9.738;2022-11-14T13:05:30;1.63;;;1.20;;
9240;SDS011;53485;49.326;9.738;2022-11-14T13:07:45;0.63;;;0.63;;
9240;SDS011;53485;49.326;9.738;2022-11-14T13:10:11;0.87;;;0.70;;
9240;SDS011;53485;49.326;9.738;2022-11-14T13:12:40;1.13;;;0.73;;
9240;SDS011;53485;49.326;9.738;2022-11-14T13:15:30;1.47;;;1.17;;
9240;SDS011;53485;49.326;9.738;2022-11-14T13:18:07;0.60;;;0.60;;
9240;SDS011;53485;49.326;9.738;2022-11-14T13:23:55;0.60;;;0.60;;
9240;SDS011;53485;49.326;9.738;2022-11-14T13:26:38;0.60;;;0.50;;
9240;SDS011;53485;49.326;9.738;2022-11-14T13:29:04;2.67;;;0.50;;
9240;SDS011;53485;49.326;9.738;2022-11-14T13:36:53;0.80;;;0.80;;
9240;SDS011;53485;49.326;9.738;2022-11-14T13:39:22;1.17;;;0.53;;
9240;SDS011;53485;49.326;9.738;2022-11-14T13:42:10;1.80;;;0.60;;
9240;SDS011;53485;49.326;9.738;2022-11-14T13:44:55;1.97;;;0.60;;
9240;SDS011;53485;49.326;9.738;2022-11-14T13:50:29;3.07;;;0.50;;
9240;SDS011;53485;49.326;9.738;2022-11-14T13:52:55;1.90;;;0.40;;
9240;SDS011;53485;49.326;9.738;2022-11-14T13:55:27;1.90;;;0.50;;
9240;SDS011;53485;49.326;9.738;2022-11-14T13:58:59;0.67;;;0.30;;
9240;SDS011;53485;49.326;9.738;2022-11-14T14:00:44;2.30;;;0.40;;
9240;SDS011;53485;49.326;9.738;2022-11-14T14:03:13;0.37;;;0.33;;
9240;SDS011;53485;49.326;9.738;2022-11-14T14:05:46;0.70;;;0.40;;
9240;SDS011;53485;49.326;9.738;2022-11-14T14:08:12;0.73;;;0.40;;
9240;SDS011;53485;49.326;9.738;2022-11-14T14:10:40;0.40;;;0.40;;
9240;SDS011;53485;49.326;9.738;2022-11-14T14:13:14;0.70;;;0.50;;
9240;SDS011;53485;49.326;9.738;2022-11-14T14:15:45;3.07;;;0.40;;
9240;SDS011;53485;49.326;9.738;2022-11-14T14:18:28;0.50;;;0.50;;
9240;SDS011;53485;49.326;9.738;2022-11-14T14:21:18;0.80;;;0.40;;
9240;SDS011;53485;49.326;9.738;2022-11-14T14:23:52;0.50;;;0.33;;
9240;SDS011;53485;49.326;9.738;2022-11-14T14:27:28;1.20;;;0.40;;
9240;SDS011;53485;49.326;9.738;2022-11-14T14:29:28;0.60;;;0.43;;
9240;SDS011;53485;49.326;9.738;2022-11-14T14:32:04;1.43;;;0.40;;
9240;SDS011;53485;49.326;9.738;2022-11-14T14:34:29;1.00;;;0.50;;
9240;SDS011;53485;49.326;9.738;2022-11-14T14:36:57;3.40;;;0.50;;
9240;SDS011;53485;49.326;9.738;2022-11-14T14:39:25;1.03;;;0.50;;
9240;SDS011;53485;49.326;9.738;2022-11-14T14:41:53;0.87;;;0.50;;
9240;SDS011;53485;49.326;9.738;2022-11-14T14:46:57;0.57;;;0.50;;
9240;SDS011;53485;49.326;9.738;2022-11-14T14:49:28;1.37;;;0.60;;
9240;SDS011;53485;49.326;9.738;2022-11-14T14:51:53;0.60;;;0.60;;
9240;SDS011;53485;49.326;9.738;2022-11-14T14:54:23;1.37;;;0.50;;
9240;SDS011;53485;49.326;9.738;2022-11-14T14:56:53;0.90;;;0.70;;
9240;SDS011;53485;49.326;9.738;2022-11-14T14:59:21;1.93;;;0.63;;
9240;SDS011;53485;49.326;9.738;2022-11-14T15:01:45;1.00;;;0.50;;
9240;SDS011;53485;49.326;9.738;2022-11-14T15:04:13;1.17;;;0.60;;
9240;SDS011;53485;49.326;9.738;2022-11-14T15:06:39;1.37;;;0.90;;
9240;SDS011;53485;49.326;9.738;2022-11-14T15:11:49;1.13;;;0.50;;
9240;SDS011;53485;49.326;9.738;2022-11-14T15:14:16;2.27;;;0.70;;
9240;SDS011;53485;49.326;9.738;2022-11-14T15:16:42;0.70;;;0.70;;
9240;SDS011;53485;49.326;9.738;2022-11-14T15:19:11;1.10;;;0.93;;
9240;SDS011;53485;49.326;9.738;2022-11-14T15:21:37;3.90;;;0.70;;
9240;SDS011;53485;49.326;9.738;2022-11-14T15:26:42;2.20;;;0.80;;
9240;SDS011;53485;49.326;9.738;2022-11-14T15:29:20;0.80;;;0.80;;
9240;SDS011;53485;49.326;9.738;2022-11-14T15:31:48;3.67;;;0.70;;
9240;SDS011;53485;49.326;9.738;2022-11-14T15:34:22;2.03;;;0.80;;